CheckWX is a tool to help pilots better visualize weather data.  It is not intended as a substitute for an official pre-flight weather briefing.

00:21:06 UTC

KSBN TAF
South Bend International Airport
South Bend, Indiana, USA
KSBN 242333Z 2500/2524 05006KT 4SM -RA OVC015 FM250300 04009KT 4SM -RA OVC009 FM250900 05010KT 4SM BR VCSH OVC020 FM251600 04011G19KT 3SM -RA OVC010 FM252300 04011KT 2SM -SNRA OVC007

Feb-25@
00:00 UTC

Feb-25 @ 00:00 UTC

Feb-25@
03:00 UTC

Feb-25 @ 03:00 UTC

KSBN 242333Z 2500/2524 05006KT 4SM -RA OVC015
Wind
  • 050° at 6 KTS
Conditions
Light Rain
Cloud Levels
  • Overcast at 1,500' AGL

Feb-25@
03:00 UTC

Feb-25 @ 03:00 UTC

Feb-25@
09:00 UTC

Feb-25 @ 09:00 UTC

FM250300 04009KT 4SM -RA OVC009

From

From Standard forecast or significant change

Wind
  • 040° at 9 KTS
Conditions
Light Rain
Cloud Levels
  • Overcast at 900' AGL

Feb-25@
09:00 UTC

Feb-25 @ 09:00 UTC

Feb-25@
16:00 UTC

Feb-25 @ 16:00 UTC

FM250900 05010KT 4SM BR VCSH OVC020

From

From Standard forecast or significant change

Wind
  • 050° at 10 KTS
Conditions
Mist
Cloud Levels
  • Overcast at 2,000' AGL

Feb-25@
16:00 UTC

Feb-25 @ 16:00 UTC

Feb-25@
23:00 UTC

Feb-25 @ 23:00 UTC

FM251600 04011G19KT 3SM -RA OVC010

From

From Standard forecast or significant change

Wind
  • 040° at 11 KTS
  • {Gusting to 19 KTS
Conditions
Light Rain
Cloud Levels
  • Overcast at 1,000' AGL

Feb-25@
23:00 UTC

Feb-25 @ 23:00 UTC

Feb-26@
00:00 UTC

Feb-26 @ 00:00 UTC

FM252300 04011KT 2SM -SNRA OVC007

From

From Standard forecast or significant change

Wind
  • 040° at 11 KTS
Conditions
Light Snow, Light Rain
Cloud Levels
  • Overcast at 700' AGL